Latest Weather Observations for Nullarbor

IDS60801

Issued at 3:31 am CST Monday 31 August 2015 (issued every 30 minutes, with the page automatically refreshed every 10 minutes)

About weather observations | Map of weather stations | Latest weather observations for SA | Other Formats
Station Details ID: 018106 Name: NULLARBOR Lat: -31.45 Lon: 130.90 Height: 64.0 m
Data from the previous 72 hours. | See also: Recent months at Nullarbor
Date/Time
CST
Temp
°C
App
Temp
°C
Dew
Point
Rel
Hum
%
Delta-T
°C
Wind Press
QNH
hPa
Press
MSL
hPa
Rain
since 9 am
mm
Dir
 
Spd
km/h
Gust
km/h
Spd
kts
Gust
kts
31/03:30am 13.2 11.5 12.6 96 0.3 W 13 19 7 10 1017.4 1017.4 3.8
31/03:00am 13.3 10.9 12.7 96 0.3 W 17 20 9 11 1017.8 1017.8 3.8
31/02:30am 12.9 10.3 12.1 95 0.4 SW 17 24 9 13 1017.4 1017.4 3.8
31/02:00am 13.2 11.7 11.9 92 0.7 NW 11 13 6 7 1017.0 1017.0 3.8
31/01:30am 13.7 11.9 12.1 90 0.9 NNW 13 15 7 8 1017.0 1017.0 3.8
31/01:00am 14.1 12.7 12.1 88 1.1 N 11 13 6 7 1017.0 1017.0 3.8
31/12:30am 14.7 13.1 12.7 88 1.1 N 13 19 7 10 1017.2 1017.2 3.8
31/12:00am 15.1 12.4 13.0 87 1.2 N 19 22 10 12 1016.8 1016.8 3.8
 
Date/Time
CST
Temp
°C
App
Temp
°C
Dew
Point
Rel
Hum
%
Delta-T
°C
Wind Press
QNH
hPa
Press
MSL
hPa
Rain
since 9 am
mm
Dir
 
Spd
km/h
Gust
km/h
Spd
kts
Gust
kts
30/11:30pm 15.4 11.8 13.1 86 1.3 N 24 30 13 16 1017.2 1017.2 3.8
30/11:00pm 15.5 11.6 13.2 86 1.3 N 26 33 14 18 1017.5 1017.5 3.8
30/10:30pm 15.7 10.9 13.9 89 1.0 NNE 32 39 17 21 1016.4 1016.4 3.8
30/10:00pm 15.5 11.9 14.2 92 0.7 N 26 33 14 18 1017.8 1017.8 3.8
30/09:30pm 15.5 11.5 14.0 91 0.8 N 28 35 15 19 1017.8 1017.8 3.8
30/09:00pm 15.2 11.2 14.2 94 0.6 NNE 28 41 15 22 1017.9 1017.9 3.8
30/08:30pm 14.8 12.6 14.3 97 0.3 NNE 19 24 10 13 1018.5 1018.5 3.8
30/08:00pm 14.8 13.3 14.3 97 0.3 N 15 17 8 9 1018.9 1018.9 3.8
30/07:30pm 14.9 13.8 14.3 96 0.3 NE 13 17 7 9 1018.2 1018.2 3.8
30/07:00pm 15.0 13.5 14.2 95 0.5 ENE 15 19 8 10 1017.7 1017.7 3.8
30/06:30pm 15.2 13.8 14.6 96 0.3 E 15 19 8 10 1017.6 1017.6 3.8
30/06:00pm 15.5 13.4 14.7 95 0.5 ESE 19 20 10 11 1017.8 1017.8 3.8
30/05:30pm 15.7 14.7 14.6 93 0.6 SSW 13 17 7 9 1018.6 1018.6 3.6
30/05:24pm 15.7 14.7 14.6 93 0.6 SSW 13 17 7 9 1018.7 1018.7 3.4
30/05:12pm 15.8 14.7 14.3 91 0.9 SW 13 17 7 9 1018.7 1018.7 3.4
30/05:07pm 15.9 14.8 14.4 91 0.9 WSW 13 17 7 9 1018.7 1018.7 3.2
30/05:00pm 15.9 14.0 14.1 89 1.0 WSW 17 24 9 13 1018.7 1018.7 2.8
30/04:49pm 15.9 13.5 13.7 87 1.2 WSW 19 24 10 13 1018.6 1018.6 2.4
30/04:30pm 16.1 12.5 13.2 83 1.6 WSW 24 33 13 18 1018.3 1018.3 1.6
30/04:18pm 16.3 11.2 13.0 81 1.8 SW 32 39 17 21 1017.8 1017.8 1.4
30/04:00pm 16.6 9.4 11.9 74 2.6 WSW 41 57 22 31 1017.1 1017.1 1.2
30/03:56pm 17.6 11.8 11.6 68 3.3 WNW 33 57 18 31 1017.2 1017.2 0.6
30/03:52pm 19.6 15.5 11.4 59 4.5 NW 24 54 13 29 1017.1 1017.1 0.4
30/03:30pm 24.9 21.3 6.6 31 9.5 N 15 20 8 11 1015.8 1015.8 0.0
30/03:00pm 25.5 22.8 5.7 28 10.2 N 9 17 5 9 1015.6 1015.6 0.0
30/02:30pm 26.2 22.6 5.2 26 10.7 NNW 13 20 7 11 1015.7 1015.7 0.0
30/02:00pm 26.1 22.3 5.7 27 10.5 N 15 24 8 13 1016.0 1016.0 0.0
30/01:30pm 25.0 19.6 4.7 27 10.2 N 22 32 12 17 1016.6 1016.6 0.0
30/01:00pm 24.5 18.2 3.8 26 10.2 N 26 33 14 18 1017.4 1017.4 0.0
30/12:30pm 23.9 17.0 2.7 25 10.2 NNE 28 37 15 20 1017.8 1017.8 0.0
30/12:00pm 23.1 15.2 2.0 25 9.9 NNE 33 44 18 24 1018.4 1018.4 0.0
30/11:30am 20.8 12.3 1.1 27 9.0 NNE 35 46 19 25 1018.9 1018.9 0.0
30/11:00am 19.8 10.9 0.8 28 8.5 NNE 37 46 20 25 1019.0 1019.0 0.0
30/10:30am 18.5 9.3 1.1 31 7.8 NNE 39 50 21 27 1019.5 1019.5 0.0
30/10:00am 16.5 6.5 1.0 35 6.8 NNE 43 54 23 29 1019.7 1019.8 0.0
30/09:30am 15.0 6.3 1.9 41 5.8 NE 37 50 20 27 1019.9 1020.0 0.0
30/09:00am 14.7 6.0 1.9 42 5.6 NE 37 50 20 27 1019.8 1019.9 0.0
30/08:56am 14.8 6.5 2.4 43 5.5 NE 35 54 19 29 1019.9 1020.0 0.0
30/08:30am 13.2 4.9 2.4 48 4.7 NE 35 46 19 25 1019.9 1020.0 0.0
30/08:00am 11.4 4.5 2.4 54 3.9 NE 28 37 15 20 1020.0 1020.1 0.0
30/07:30am 9.8 3.3 2.4 60 3.1 NE 26 33 14 18 1019.7 1019.8 0.0
30/07:00am 9.7 2.8 2.3 60 3.1 NE 28 32 15 17 1019.4 1019.4 0.0
30/06:30am 10.1 3.2 2.5 59 3.2 NE 28 35 15 19 1019.3 1019.3 0.0
30/06:00am 10.4 3.9 2.5 58 3.4 ENE 26 33 14 18 1019.1 1019.1 0.0
30/05:30am 10.5 4.0 2.6 58 3.4 NE 26 33 14 18 1019.1 1019.1 0.0
30/05:00am 10.2 4.1 2.8 60 3.2 NE 24 30 13 16 1019.2 1019.2 0.0
30/04:30am 9.7 3.6 2.8 62 3.0 NE 24 32 13 17 1019.2 1019.2 0.0
30/04:00am 9.1 3.7 2.7 64 2.7 ENE 20 24 11 13 1019.6 1019.7 0.0
30/03:30am 9.5 4.1 2.6 62 2.9 ENE 20 24 11 13 1019.9 1020.0 0.0
30/03:00am 9.8 4.0 2.4 60 3.1 ENE 22 26 12 14 1020.2 1020.3 0.0
30/02:30am 10.6 4.4 2.4 57 3.5 NE 24 30 13 16 1020.6 1020.7 0.0
30/02:00am 11.1 5.4 2.9 57 3.6 ENE 22 30 12 16 1020.3 1020.4 0.0
30/01:30am 8.8 3.8 3.8 71 2.2 ENE 19 20 10 11 1020.3 1020.4 0.0
30/01:00am 9.0 4.5 4.2 72 2.1 E 17 20 9 11 1020.7 1020.8 0.0
30/12:30am 8.7 4.2 4.3 74 1.9 E 17 20 9 11 1020.8 1020.9 0.0
30/12:00am 9.2 4.8 4.6 73 2.0 E 17 20 9 11 1021.2 1021.3 0.0
 
Date/Time
CST
Temp
°C
App
Temp
°C
Dew
Point
Rel
Hum
%
Delta-T
°C
Wind Press
QNH
hPa
Press
MSL
hPa
Rain
since 9 am
mm
Dir
 
Spd
km/h
Gust
km/h
Spd
kts
Gust
kts
29/11:30pm 9.8 5.4 5.0 72 2.2 E 17 20 9 11 1021.4 1021.5 0.0
29/11:00pm 10.6 5.9 5.2 69 2.5 E 19 22 10 12 1021.8 1021.9 0.0
29/10:30pm 11.1 6.2 5.2 67 2.7 E 20 24 11 13 1021.9 1022.0 0.0
29/10:00pm 11.9 7.3 6.4 69 2.6 ESE 20 26 11 14 1022.2 1022.3 0.0
29/09:30pm 12.6 8.0 8.3 75 2.1 ESE 22 28 12 15 1022.2 1022.3 0.0
29/09:00pm 12.4 8.9 10.3 87 1.1 ESE 19 22 10 12 1022.2 1022.3 0.0
29/08:30pm 12.5 9.4 10.2 86 1.2 ESE 17 20 9 11 1022.2 1022.3 0.0
29/08:00pm 12.8 9.1 10.2 84 1.3 ESE 20 24 11 13 1021.9 1022.0 0.0
29/07:30pm 13.1 9.2 9.4 78 1.9 ESE 20 24 11 13 1022.0 1022.1 0.0
29/07:00pm 13.8 9.7 8.8 72 2.5 ESE 20 28 11 15 1021.6 1021.7 0.0
29/06:30pm 14.5 9.8 7.8 64 3.3 ESE 22 28 12 15 1021.6 1021.7 0.0
29/06:00pm 15.9 9.7 7.7 58 4.1 SE 30 37 16 20 1021.3 1021.4 0.0
29/05:30pm 17.1 10.6 6.3 49 5.3 ESE 30 39 16 21 1021.1 1021.2 0.0
29/05:00pm 18.2 11.2 4.0 39 6.7 ESE 30 35 16 19 1021.3 1021.4 0.0
29/04:30pm 19.1 12.0 3.3 35 7.4 ESE 30 37 16 20 1021.2 1021.3 0.0
29/04:00pm 19.8 12.6 3.1 33 7.9 ESE 30 35 16 19 1021.4 1021.5 0.0
29/03:30pm 21.8 16.1 -0.8 22 10.0 ENE 19 30 10 16 1021.5 1021.6 0.0
29/03:00pm 21.4 15.6 -1.2 22 9.9 NE 19 32 10 17 1021.6 1021.7 0.0
29/02:30pm 21.3 15.3 -1.3 22 9.8 NE 20 32 11 17 1021.9 1022.0 0.0
29/02:00pm 21.0 15.8 0.2 25 9.3 NE 17 32 9 17 1022.3 1022.4 0.0
29/01:30pm 20.2 15.1 0.6 27 8.8 NE 17 26 9 14 1022.9 1023.0 0.0
29/01:00pm 20.6 14.7 1.5 28 8.8 NE 22 39 12 21 1023.6 1023.6 0.0
29/12:30pm 20.4 14.2 2.3 30 8.4 NE 24 33 13 18 1024.0 1024.0 0.0
29/12:00pm 19.1 11.7 2.0 32 7.8 NE 30 37 16 20 1024.5 1024.5 0.0
29/11:30am 18.8 11.5 2.6 34 7.4 NE 30 35 16 19 1025.0 1025.0 0.0
29/11:00am 17.7 11.0 3.6 39 6.6 NE 28 35 15 19 1025.4 1025.4 0.0
29/10:30am 16.5 9.1 4.2 44 5.7 NE 32 39 17 21 1025.5 1025.5 0.0
29/10:00am 14.9 7.9 4.0 48 5.0 NE 30 35 16 19 1025.7 1025.7 0.0
29/09:30am 13.7 7.7 5.3 57 3.9 NE 26 35 14 19 1025.8 1025.8 0.0
29/09:00am 11.5 5.9 5.4 66 2.8 NE 24 32 13 17 1025.7 1025.7 0.0
29/08:30am 9.6 4.5 5.8 77 1.7 NE 22 30 12 16 1025.5 1025.5 0.0
29/08:00am 7.4 2.7 5.9 90 0.7 NE 20 26 11 14 1025.2 1025.2 0.0
29/07:30am 5.5 0.7 4.9 96 0.3 ENE 19 22 10 12 1024.8 1024.8 0.0
29/07:00am 5.3 0.5 4.7 96 0.3 ENE 19 22 10 12 1024.6 1024.6 0.0
29/06:30am 5.5 0.8 5.1 97 0.2 NE 19 22 10 12 1024.4 1024.4 0.0
29/06:00am 5.7 1.4 5.4 98 0.1 NE 17 20 9 11 1024.3 1024.3 0.0
29/05:30am 5.3 0.9 5.0 98 0.1 NE 17 19 9 10 1024.1 1024.1 0.0
29/05:00am 5.4 1.0 5.0 97 0.2 NE 17 19 9 10 1024.2 1024.2 0.0
29/04:30am 4.8 0.6 3.9 94 0.4 ENE 15 17 8 9 1024.2 1024.2 0.0
29/04:00am 5.7 1.7 4.7 93 0.4 E 15 17 8 9 1024.2 1024.2 0.0
29/03:30am 7.0 3.5 5.6 91 0.6 E 13 17 7 9 1024.4 1024.4 0.0
29/03:00am 8.2 4.2 6.5 89 0.8 E 17 20 9 11 1024.5 1024.5 0.0
29/02:30am 8.9 4.4 7.0 88 0.9 ESE 20 24 11 13 1024.7 1024.7 0.0
29/02:00am 9.0 4.5 7.1 88 0.9 ESE 20 24 11 13 1025.1 1025.1 0.0
29/01:30am 8.7 4.4 6.8 88 0.9 E 19 24 10 13 1025.4 1025.4 0.0
29/01:00am 8.7 4.7 6.7 87 0.9 E 17 20 9 11 1025.5 1025.5 0.0
29/12:30am 9.3 4.9 6.7 84 1.2 E 19 24 10 13 1025.8 1025.8 0.0
29/12:00am 9.7 5.2 6.8 82 1.4 E 20 24 11 13 1025.9 1025.9 0.0
 
Date/Time
CST
Temp
°C
App
Temp
°C
Dew
Point
Rel
Hum
%
Delta-T
°C
Wind Press
QNH
hPa
Press
MSL
hPa
Rain
since 9 am
mm
Dir
 
Spd
km/h
Gust
km/h
Spd
kts
Gust
kts
28/11:30pm 10.0 5.5 7.1 82 1.4 E 20 24 11 13 1026.1 1026.1 0.0
28/11:00pm 10.2 5.8 7.3 82 1.4 E 20 28 11 15 1026.2 1026.2 0.0
28/10:30pm 10.1 6.1 6.6 79 1.6 ESE 17 20 9 11 1026.3 1026.3 0.0
28/10:00pm 10.3 6.4 7.0 80 1.6 ESE 17 19 9 10 1026.4 1026.4 0.0
28/09:30pm 11.5 6.7 7.2 75 2.1 ESE 22 28 12 15 1026.3 1026.3 0.0
28/09:00pm 11.8 7.3 8.5 80 1.6 ESE 22 28 12 15 1026.1 1026.1 0.0
28/08:30pm 11.8 7.3 8.6 81 1.6 SE 22 26 12 14 1025.8 1025.8 0.0
28/08:00pm 11.9 7.4 8.6 80 1.6 SE 22 28 12 15 1025.7 1025.7 0.0
28/07:30pm 12.1 7.6 8.4 78 1.8 SE 22 28 12 15 1025.4 1025.4 0.0
28/07:00pm 12.4 7.9 8.5 77 1.9 SE 22 30 12 16 1025.2 1025.2 0.0
28/06:30pm 13.0 7.3 8.5 74 2.2 SE 28 37 15 20 1024.8 1024.8 0.0
28/06:00pm 13.8 7.7 8.4 70 2.7 SE 30 37 16 20 1024.6 1024.6 0.0
28/05:30pm 14.6 8.4 7.9 64 3.3 SE 30 37 16 20 1024.6 1024.6 0.0
28/05:00pm 15.6 9.2 7.1 57 4.2 SE 30 37 16 20 1024.5 1024.5 0.0
28/04:30pm 16.4 10.3 6.8 53 4.7 SE 28 37 15 20 1024.6 1024.6 0.0
28/04:00pm 17.1 10.9 6.3 49 5.3 SE 28 35 15 19 1024.4 1024.4 0.0
28/03:30pm 17.1 12.0 4.1 42 6.1 SE 20 33 11 18 1024.5 1024.5 0.0
28/03:00pm 18.5 13.2 2.8 35 7.2 NE 20 32 11 17 1024.7 1024.7 0.0
28/02:30pm 18.2 13.0 3.7 38 6.8 NE 20 28 11 15 1024.9 1024.9 0.0
28/02:00pm 18.5 13.9 3.6 37 7.0 ENE 17 30 9 16 1025.3 1025.3 0.0
28/01:30pm 17.9 13.4 4.1 40 6.5 NE 17 32 9 17 1025.7 1025.7 0.0
28/01:00pm 17.4 12.2 3.7 40 6.4 NE 20 30 11 16 1026.4 1026.4 0.0
28/12:30pm 16.8 11.3 3.8 42 6.0 NE 22 33 12 18 1027.1 1027.1 0.0
28/12:00pm 17.0 10.9 5.0 45 5.7 NE 26 33 14 18 1027.4 1027.4 0.0
28/11:30am 16.3 10.0 5.6 49 5.1 NE 28 37 15 20 1027.8 1027.8 0.0
28/11:00am 15.4 9.1 5.9 53 4.6 NE 28 37 15 20 1028.0 1028.0 0.0
28/10:30am 14.3 7.7 6.2 58 3.9 NE 30 35 16 19 1028.3 1028.3 0.0
28/10:00am 13.2 7.6 7.2 67 2.9 ENE 26 35 14 19 1028.7 1028.7 0.0
28/09:30am 11.6 6.5 7.7 77 1.9 NE 24 32 13 17 1028.9 1028.9 0.0
28/09:00am 9.2 4.9 6.8 85 1.1 ENE 19 26 10 14 1028.9 1028.9 0.2
28/08:30am 9.1 5.6 7.2 88 0.9 ENE 15 19 8 10 1028.5 1028.5 0.2
28/08:00am 7.8 4.6 6.7 93 0.5 E 13 17 7 9 1028.5 1028.5 0.2
28/07:30am 6.8 3.0 5.7 93 0.5 E 15 17 8 9 1028.2 1028.2 0.2
28/07:00am 7.1 2.4 6.2 94 0.4 E 20 24 11 13 1027.8 1027.8 0.2
28/06:30am 6.7 2.0 6.0 95 0.3 E 20 26 11 14 1027.8 1027.8 0.2
28/06:00am 6.7 2.2 6.1 96 0.3 E 19 24 10 13 1027.7 1027.7 0.2
28/05:30am 6.1 2.2 5.4 95 0.3 E 15 19 8 10 1027.6 1027.6 0.0
28/05:00am 6.9 2.8 6.0 94 0.4 E 17 20 9 11 1027.4 1027.4 0.0
28/04:30am 7.2 2.7 6.0 92 0.5 E 19 22 10 12 1027.4 1027.4 0.0
28/04:00am 7.3 2.8 5.9 91 0.6 E 19 22 10 12 1027.4 1027.4 0.0

Other Formats:

Comma delimited format used in spreadsheet applications
http://www.bom.gov.au/fwo/IDS60801/IDS60801.94651.axf

JavaScript Object Notation format (JSON) in row-major order
http://www.bom.gov.au/fwo/IDS60801/IDS60801.94651.json